sensor_id;sensor_type;location;lat;lon;timestamp;pressure;altitude;pressure_sealevel;temperature;humidity
15050;BME280;7622;42.724;23.250;2023-04-28T00:01:51;94911.78;;;7.03;68.79
15050;BME280;7622;42.724;23.250;2023-04-28T00:04:18;94904.97;;;6.91;68.92
15050;BME280;7622;42.724;23.250;2023-04-28T00:06:45;94899.19;;;6.76;69.54
15050;BME280;7622;42.724;23.250;2023-04-28T00:09:13;94908.16;;;6.59;71.59
15050;BME280;7622;42.724;23.250;2023-04-28T00:11:40;94905.78;;;6.45;72.77
15050;BME280;7622;42.724;23.250;2023-04-28T00:14:09;94910.56;;;6.39;74.78
15050;BME280;7622;42.724;23.250;2023-04-28T00:16:36;94901.31;;;6.36;75.13
15050;BME280;7622;42.724;23.250;2023-04-28T00:19:02;94905.97;;;6.31;75.86
15050;BME280;7622;42.724;23.250;2023-04-28T00:21:29;94887.69;;;6.34;74.30
15050;BME280;7622;42.724;23.250;2023-04-28T00:23:56;94909.78;;;6.49;74.55
15050;BME280;7622;42.724;23.250;2023-04-28T00:26:24;94908.13;;;6.48;74.40
15050;BME280;7622;42.724;23.250;2023-04-28T00:28:51;94907.84;;;6.29;75.06
15050;BME280;7622;42.724;23.250;2023-04-28T00:31:18;94913.50;;;6.34;75.92
15050;BME280;7622;42.724;23.250;2023-04-28T00:33:44;94908.31;;;6.34;76.33
15050;BME280;7622;42.724;23.250;2023-04-28T00:36:11;94918.78;;;6.44;75.84
15050;BME280;7622;42.724;23.250;2023-04-28T00:38:38;94921.69;;;6.39;75.83
15050;BME280;7622;42.724;23.250;2023-04-28T00:41:05;94894.84;;;6.07;77.40
15050;BME280;7622;42.724;23.250;2023-04-28T00:43:44;94924.34;;;6.03;78.94
15050;BME280;7622;42.724;23.250;2023-04-28T00:46:16;94927.50;;;5.82;82.20
15050;BME280;7622;42.724;23.250;2023-04-28T00:48:45;94924.72;;;5.85;82.42
15050;BME280;7622;42.724;23.250;2023-04-28T00:51:12;94926.69;;;5.95;81.04
15050;BME280;7622;42.724;23.250;2023-04-28T00:53:39;94928.75;;;5.77;83.58
15050;BME280;7622;42.724;23.250;2023-04-28T00:56:06;94931.06;;;5.56;86.15
15050;BME280;7622;42.724;23.250;2023-04-28T00:58:33;94926.75;;;5.57;87.36
15050;BME280;7622;42.724;23.250;2023-04-28T01:01:05;94925.44;;;5.51;88.85
15050;BME280;7622;42.724;23.250;2023-04-28T01:03:34;94936.22;;;5.56;88.34
15050;BME280;7622;42.724;23.250;2023-04-28T01:06:03;94932.44;;;5.49;89.15
15050;BME280;7622;42.724;23.250;2023-04-28T01:08:30;94942.22;;;5.57;87.63
15050;BME280;7622;42.724;23.250;2023-04-28T01:10:57;94939.16;;;5.75;85.35
15050;BME280;7622;42.724;23.250;2023-04-28T01:13:24;94934.78;;;5.65;86.49
15050;BME280;7622;42.724;23.250;2023-04-28T01:15:51;94938.72;;;5.81;84.46
15050;BME280;7622;42.724;23.250;2023-04-28T01:18:19;94939.25;;;5.86;83.66
15050;BME280;7622;42.724;23.250;2023-04-28T01:20:46;94932.78;;;5.68;84.11
15050;BME280;7622;42.724;23.250;2023-04-28T01:23:13;94929.78;;;5.74;83.14
15050;BME280;7622;42.724;23.250;2023-04-28T01:25:42;94936.84;;;5.47;85.33
15050;BME280;7622;42.724;23.250;2023-04-28T01:28:10;94933.88;;;5.40;86.56
15050;BME280;7622;42.724;23.250;2023-04-28T01:30:37;94934.59;;;5.42;86.56
15050;BME280;7622;42.724;23.250;2023-04-28T01:33:04;94930.59;;;5.38;87.73
15050;BME280;7622;42.724;23.250;2023-04-28T01:35:30;94931.94;;;5.44;87.16
15050;BME280;7622;42.724;23.250;2023-04-28T01:37:57;94936.66;;;5.50;86.64
15050;BME280;7622;42.724;23.250;2023-04-28T01:40:24;94938.59;;;5.46;86.28
15050;BME280;7622;42.724;23.250;2023-04-28T01:42:52;94939.56;;;5.33;87.13
15050;BME280;7622;42.724;23.250;2023-04-28T01:45:19;94940.50;;;5.44;86.36
15050;BME280;7622;42.724;23.250;2023-04-28T01:47:46;94941.00;;;5.37;86.67
15050;BME280;7622;42.724;23.250;2023-04-28T01:50:13;94944.09;;;5.42;85.50
15050;BME280;7622;42.724;23.250;2023-04-28T01:52:39;94940.91;;;5.38;86.60
15050;BME280;7622;42.724;23.250;2023-04-28T01:55:07;94939.75;;;5.42;85.79
15050;BME280;7622;42.724;23.250;2023-04-28T01:57:34;94941.09;;;5.48;84.71
15050;BME280;7622;42.724;23.250;2023-04-28T02:00:02;94937.81;;;5.46;84.39
15050;BME280;7622;42.724;23.250;2023-04-28T02:02:29;94935.63;;;5.40;85.01
15050;BME280;7622;42.724;23.250;2023-04-28T02:04:56;94942.28;;;5.19;86.91
15050;BME280;7622;42.724;23.250;2023-04-28T02:07:24;94941.44;;;5.18;87.79
15050;BME280;7622;42.724;23.250;2023-04-28T02:09:54;94945.75;;;5.30;87.39
15050;BME280;7622;42.724;23.250;2023-04-28T02:12:23;94946.38;;;5.21;88.42
15050;BME280;7622;42.724;23.250;2023-04-28T02:14:50;94952.25;;;5.10;89.63
15050;BME280;7622;42.724;23.250;2023-04-28T02:17:18;94947.81;;;5.12;88.72
15050;BME280;7622;42.724;23.250;2023-04-28T02:19:44;94947.84;;;5.25;88.42
15050;BME280;7622;42.724;23.250;2023-04-28T02:22:11;94954.41;;;5.29;88.13
15050;BME280;7622;42.724;23.250;2023-04-28T02:24:39;94954.59;;;5.26;88.30
15050;BME280;7622;42.724;23.250;2023-04-28T02:27:09;94953.59;;;5.29;87.46
15050;BME280;7622;42.724;23.250;2023-04-28T02:29:37;94961.41;;;5.27;86.81
15050;BME280;7622;42.724;23.250;2023-04-28T02:32:03;94959.16;;;5.23;87.30
15050;BME280;7622;42.724;23.250;2023-04-28T02:34:32;94962.22;;;5.28;87.69
15050;BME280;7622;42.724;23.250;2023-04-28T02:36:58;94966.34;;;5.43;87.12
15050;BME280;7622;42.724;23.250;2023-04-28T02:39:25;94963.47;;;5.35;86.87
15050;BME280;7622;42.724;23.250;2023-04-28T02:41:54;94957.31;;;5.25;86.50
15050;BME280;7622;42.724;23.250;2023-04-28T02:44:21;94969.13;;;5.14;90.50
15050;BME280;7622;42.724;23.250;2023-04-28T02:46:49;94967.16;;;5.05;91.58
15050;BME280;7622;42.724;23.250;2023-04-28T02:49:18;94971.00;;;5.12;91.17
15050;BME280;7622;42.724;23.250;2023-04-28T02:51:47;94968.31;;;5.01;91.94
15050;BME280;7622;42.724;23.250;2023-04-28T02:54:14;94967.91;;;5.07;90.81
15050;BME280;7622;42.724;23.250;2023-04-28T02:56:41;94966.16;;;5.21;88.09
15050;BME280;7622;42.724;23.250;2023-04-28T02:59:07;94980.16;;;5.42;86.07
15050;BME280;7622;42.724;23.250;2023-04-28T03:01:34;94981.38;;;5.49;85.60
15050;BME280;7622;42.724;23.250;2023-04-28T03:04:01;94981.69;;;5.57;81.32
15050;BME280;7622;42.724;23.250;2023-04-28T03:06:28;94972.94;;;5.60;79.97
15050;BME280;7622;42.724;23.250;2023-04-28T03:08:57;94972.72;;;5.50;81.15
15050;BME280;7622;42.724;23.250;2023-04-28T03:11:24;94980.66;;;5.47;81.20
15050;BME280;7622;42.724;23.250;2023-04-28T03:13:50;94973.56;;;5.50;81.58
15050;BME280;7622;42.724;23.250;2023-04-28T03:16:17;94981.06;;;5.53;81.46
15050;BME280;7622;42.724;23.250;2023-04-28T03:18:44;94983.22;;;5.47;80.80
15050;BME280;7622;42.724;23.250;2023-04-28T03:21:11;94995.97;;;5.61;78.55
15050;BME280;7622;42.724;23.250;2023-04-28T03:23:38;95000.53;;;5.58;78.84
15050;BME280;7622;42.724;23.250;2023-04-28T03:26:06;94993.84;;;5.55;78.99
15050;BME280;7622;42.724;23.250;2023-04-28T03:28:33;94995.06;;;5.62;77.71
15050;BME280;7622;42.724;23.250;2023-04-28T03:31:00;95000.44;;;5.59;77.40
15050;BME280;7622;42.724;23.250;2023-04-28T03:33:27;94999.22;;;5.52;77.18
15050;BME280;7622;42.724;23.250;2023-04-28T03:35:54;95017.25;;;5.52;78.22
15050;BME280;7622;42.724;23.250;2023-04-28T03:38:20;95022.97;;;5.68;77.50
15050;BME280;7622;42.724;23.250;2023-04-28T03:40:48;95017.69;;;5.95;74.91
15050;BME280;7622;42.724;23.250;2023-04-28T03:43:16;95023.97;;;6.04;74.09
15050;BME280;7622;42.724;23.250;2023-04-28T03:45:43;95026.88;;;6.36;71.90
15050;BME280;7622;42.724;23.250;2023-04-28T03:48:09;95018.09;;;6.38;70.95
15050;BME280;7622;42.724;23.250;2023-04-28T03:50:36;95032.78;;;6.72;67.99
15050;BME280;7622;42.724;23.250;2023-04-28T03:53:05;95031.47;;;6.91;66.89
15050;BME280;7622;42.724;23.250;2023-04-28T03:55:32;95033.09;;;6.92;65.64
15050;BME280;7622;42.724;23.250;2023-04-28T03:57:59;95036.06;;;6.63;66.17
15050;BME280;7622;42.724;23.250;2023-04-28T04:00:27;95044.19;;;7.05;66.06
15050;BME280;7622;42.724;23.250;2023-04-28T04:02:54;95052.19;;;7.13;64.32
15050;BME280;7622;42.724;23.250;2023-04-28T04:05:21;95044.84;;;7.42;63.83
15050;BME280;7622;42.724;23.250;2023-04-28T04:07:48;95043.28;;;7.74;63.49
15050;BME280;7622;42.724;23.250;2023-04-28T04:10:15;95049.03;;;8.00;60.83
15050;BME280;7622;42.724;23.250;2023-04-28T04:12:41;95051.97;;;8.07;61.20
15050;BME280;7622;42.724;23.250;2023-04-28T04:15:09;95051.44;;;8.24;60.49
15050;BME280;7622;42.724;23.250;2023-04-28T04:17:37;95051.13;;;8.40;59.45
15050;BME280;7622;42.724;23.250;2023-04-28T04:20:06;95055.91;;;8.44;59.22
15050;BME280;7622;42.724;23.250;2023-04-28T04:22:33;95060.88;;;8.47;59.09
15050;BME280;7622;42.724;23.250;2023-04-28T04:25:00;95065.69;;;8.52;59.37
15050;BME280;7622;42.724;23.250;2023-04-28T04:27:27;95069.88;;;8.75;58.69
15050;BME280;7622;42.724;23.250;2023-04-28T04:29:54;95068.59;;;9.01;57.96
15050;BME280;7622;42.724;23.250;2023-04-28T04:32:21;95072.63;;;8.94;58.13
15050;BME280;7622;42.724;23.250;2023-04-28T04:34:49;95072.34;;;9.08;57.29
15050;BME280;7622;42.724;23.250;2023-04-28T04:37:16;95073.28;;;9.07;57.87
15050;BME280;7622;42.724;23.250;2023-04-28T04:39:43;95074.94;;;9.29;56.98
15050;BME280;7622;42.724;23.250;2023-04-28T04:42:10;95068.19;;;9.59;55.75
15050;BME280;7622;42.724;23.250;2023-04-28T04:44:37;95077.16;;;9.55;56.57
15050;BME280;7622;42.724;23.250;2023-04-28T04:47:04;95072.94;;;9.74;56.29
15050;BME280;7622;42.724;23.250;2023-04-28T04:49:31;95082.00;;;9.89;55.59
15050;BME280;7622;42.724;23.250;2023-04-28T04:52:00;95079.97;;;9.93;55.82
15050;BME280;7622;42.724;23.250;2023-04-28T04:54:27;95086.25;;;9.70;56.67
15050;BME280;7622;42.724;23.250;2023-04-28T04:56:55;95092.00;;;9.94;57.17
15050;BME280;7622;42.724;23.250;2023-04-28T04:59:24;95082.28;;;9.86;57.06
15050;BME280;7622;42.724;23.250;2023-04-28T05:01:51;95090.31;;;10.44;56.53
15050;BME280;7622;42.724;23.250;2023-04-28T05:04:18;95097.09;;;10.66;56.09
15050;BME280;7622;42.724;23.250;2023-04-28T05:06:45;95102.28;;;10.56;56.38
15050;BME280;7622;42.724;23.250;2023-04-28T05:09:13;95094.66;;;10.84;55.35
15050;BME280;7622;42.724;23.250;2023-04-28T05:11:40;95089.84;;;10.70;54.26
15050;BME280;7622;42.724;23.250;2023-04-28T05:14:07;95101.19;;;10.69;54.89
15050;BME280;7622;42.724;23.250;2023-04-28T05:16:35;95095.38;;;10.46;55.32
15050;BME280;7622;42.724;23.250;2023-04-28T05:19:05;95102.13;;;10.58;55.06
15050;BME280;7622;42.724;23.250;2023-04-28T05:21:33;95089.72;;;10.81;54.58
15050;BME280;7622;42.724;23.250;2023-04-28T05:24:01;95100.13;;;10.71;54.80
15050;BME280;7622;42.724;23.250;2023-04-28T05:26:29;95101.22;;;10.78;54.48
15050;BME280;7622;42.724;23.250;2023-04-28T05:28:56;95109.06;;;10.97;55.21
15050;BME280;7622;42.724;23.250;2023-04-28T05:31:22;95096.72;;;10.90;54.84
15050;BME280;7622;42.724;23.250;2023-04-28T05:33:49;95093.19;;;10.91;54.58
15050;BME280;7622;42.724;23.250;2023-04-28T05:36:16;95082.94;;;11.09;54.77
15050;BME280;7622;42.724;23.250;2023-04-28T05:38:43;95090.03;;;11.16;53.23
15050;BME280;7622;42.724;23.250;2023-04-28T05:41:10;95095.38;;;11.82;52.67
15050;BME280;7622;42.724;23.250;2023-04-28T05:43:38;95087.31;;;11.27;52.72
15050;BME280;7622;42.724;23.250;2023-04-28T05:46:05;95088.66;;;11.79;52.51
15050;BME280;7622;42.724;23.250;2023-04-28T05:48:32;95094.13;;;11.96;51.63
15050;BME280;7622;42.724;23.250;2023-04-28T05:50:59;95091.38;;;11.88;51.34
15050;BME280;7622;42.724;23.250;2023-04-28T05:53:26;95096.56;;;11.97;50.58
15050;BME280;7622;42.724;23.250;2023-04-28T05:55:53;95096.13;;;12.39;50.64
15050;BME280;7622;42.724;23.250;2023-04-28T05:58:20;95096.84;;;12.68;49.30
15050;BME280;7622;42.724;23.250;2023-04-28T06:00:48;95105.91;;;12.37;49.52
15050;BME280;7622;42.724;23.250;2023-04-28T06:03:15;95098.03;;;12.74;48.97
15050;BME280;7622;42.724;23.250;2023-04-28T06:05:43;95098.72;;;12.93;48.55
15050;BME280;7622;42.724;23.250;2023-04-28T06:08:10;95099.59;;;13.12;48.02
15050;BME280;7622;42.724;23.250;2023-04-28T06:10:38;95103.09;;;12.75;47.49
15050;BME280;7622;42.724;23.250;2023-04-28T06:13:06;95089.19;;;13.47;47.31
15050;BME280;7622;42.724;23.250;2023-04-28T06:15:33;95099.31;;;13.50;46.95
15050;BME280;7622;42.724;23.250;2023-04-28T06:18:02;95104.44;;;13.07;47.53
15050;BME280;7622;42.724;23.250;2023-04-28T06:20:30;95097.13;;;13.63;47.04
15050;BME280;7622;42.724;23.250;2023-04-28T06:22:57;95095.47;;;14.06;45.93
15050;BME280;7622;42.724;23.250;2023-04-28T06:25:24;95102.41;;;13.71;46.58
15050;BME280;7622;42.724;23.250;2023-04-28T06:27:51;95114.59;;;13.45;47.16
15050;BME280;7622;42.724;23.250;2023-04-28T06:30:19;95093.63;;;13.98;46.09
15050;BME280;7622;42.724;23.250;2023-04-28T06:32:46;95103.84;;;13.66;46.84
15050;BME280;7622;42.724;23.250;2023-04-28T06:35:15;95087.94;;;14.29;45.99
15050;BME280;7622;42.724;23.250;2023-04-28T06:37:42;95103.78;;;14.01;45.84
15050;BME280;7622;42.724;23.250;2023-04-28T06:40:10;95096.81;;;14.36;45.03
15050;BME280;7622;42.724;23.250;2023-04-28T06:42:36;95102.41;;;14.75;44.59
15050;BME280;7622;42.724;23.250;2023-04-28T06:45:04;95099.25;;;15.21;44.48
15050;BME280;7622;42.724;23.250;2023-04-28T06:47:33;95099.69;;;14.92;44.51
15050;BME280;7622;42.724;23.250;2023-04-28T06:50:03;95106.75;;;14.66;44.41
15050;BME280;7622;42.724;23.250;2023-04-28T06:52:33;95102.47;;;14.91;43.43
15050;BME280;7622;42.724;23.250;2023-04-28T06:55:00;95096.94;;;15.10;42.93
15050;BME280;7622;42.724;23.250;2023-04-28T06:57:26;95096.28;;;15.00;43.50
15050;BME280;7622;42.724;23.250;2023-04-28T06:59:53;95093.03;;;15.14;43.11
15050;BME280;7622;42.724;23.250;2023-04-28T07:02:20;95093.72;;;15.24;42.62
15050;BME280;7622;42.724;23.250;2023-04-28T07:04:47;95090.59;;;15.37;42.13
15050;BME280;7622;42.724;23.250;2023-04-28T07:07:13;95087.66;;;15.32;42.19
15050;BME280;7622;42.724;23.250;2023-04-28T07:09:42;95091.63;;;15.93;41.42
15050;BME280;7622;42.724;23.250;2023-04-28T07:12:09;95095.72;;;15.87;41.13
15050;BME280;7622;42.724;23.250;2023-04-28T07:14:35;95099.81;;;16.06;41.04
15050;BME280;7622;42.724;23.250;2023-04-28T07:17:02;95089.84;;;15.93;40.89
15050;BME280;7622;42.724;23.250;2023-04-28T07:19:29;95090.03;;;16.47;39.62
15050;BME280;7622;42.724;23.250;2023-04-28T07:21:56;95096.41;;;15.89;40.35
15050;BME280;7622;42.724;23.250;2023-04-28T07:24:23;95091.81;;;15.67;40.03
15050;BME280;7622;42.724;23.250;2023-04-28T07:26:53;95092.78;;;15.90;38.84
15050;BME280;7622;42.724;23.250;2023-04-28T07:29:19;95091.47;;;16.02;38.93
15050;BME280;7622;42.724;23.250;2023-04-28T07:31:46;95093.97;;;16.59;38.15
15050;BME280;7622;42.724;23.250;2023-04-28T07:34:13;95078.63;;;16.32;38.89
15050;BME280;7622;42.724;23.250;2023-04-28T07:36:40;95090.97;;;16.70;38.94
15050;BME280;7622;42.724;23.250;2023-04-28T07:39:07;95082.16;;;17.25;37.89
15050;BME280;7622;42.724;23.250;2023-04-28T07:41:35;95089.03;;;17.03;37.52
15050;BME280;7622;42.724;23.250;2023-04-28T07:44:04;95088.81;;;16.74;38.61
15050;BME280;7622;42.724;23.250;2023-04-28T07:46:32;95082.81;;;16.57;38.96
15050;BME280;7622;42.724;23.250;2023-04-28T07:48:59;95075.91;;;16.72;39.10
15050;BME280;7622;42.724;23.250;2023-04-28T07:51:26;95085.28;;;16.59;38.38
15050;BME280;7622;42.724;23.250;2023-04-28T07:53:53;95081.97;;;16.01;38.66
15050;BME280;7622;42.724;23.250;2023-04-28T07:56:20;95077.88;;;16.54;38.33
15050;BME280;7622;42.724;23.250;2023-04-28T07:58:47;95084.03;;;16.85;37.81
15050;BME280;7622;42.724;23.250;2023-04-28T08:01:15;95076.22;;;17.62;37.47
15050;BME280;7622;42.724;23.250;2023-04-28T08:03:42;95068.81;;;17.57;37.57
15050;BME280;7622;42.724;23.250;2023-04-28T08:06:09;95070.13;;;17.99;36.75
15050;BME280;7622;42.724;23.250;2023-04-28T08:08:36;95083.28;;;17.08;37.66
15050;BME280;7622;42.724;23.250;2023-04-28T08:11:03;95078.91;;;17.23;37.73
15050;BME280;7622;42.724;23.250;2023-04-28T08:13:29;95092.97;;;17.61;37.33
15050;BME280;7622;42.724;23.250;2023-04-28T08:15:56;95083.72;;;17.88;36.95
15050;BME280;7622;42.724;23.250;2023-04-28T08:18:26;95080.19;;;18.77;35.93
15050;BME280;7622;42.724;23.250;2023-04-28T08:20:53;95027.41;;;17.59;36.16
15050;BME280;7622;42.724;23.250;2023-04-28T08:23:19;95085.78;;;18.44;35.66
15050;BME280;7622;42.724;23.250;2023-04-28T08:25:47;95082.16;;;18.75;35.18
15050;BME280;7622;42.724;23.250;2023-04-28T08:28:15;95069.09;;;18.23;35.58
15050;BME280;7622;42.724;23.250;2023-04-28T08:30:41;95071.13;;;18.13;35.76
15050;BME280;7622;42.724;23.250;2023-04-28T08:33:08;95073.78;;;18.27;35.87
15050;BME280;7622;42.724;23.250;2023-04-28T08:35:37;95062.00;;;18.23;34.92
15050;BME280;7622;42.724;23.250;2023-04-28T08:38:03;95062.69;;;17.88;35.90
15050;BME280;7622;42.724;23.250;2023-04-28T08:40:31;95062.81;;;17.71;35.84
15050;BME280;7622;42.724;23.250;2023-04-28T08:42:59;95068.78;;;17.65;36.38
15050;BME280;7622;42.724;23.250;2023-04-28T08:45:28;95067.00;;;18.47;35.42
15050;BME280;7622;42.724;23.250;2023-04-28T08:47:56;95070.84;;;17.93;35.70
15050;BME280;7622;42.724;23.250;2023-04-28T08:50:25;95066.81;;;18.49;34.77
15050;BME280;7622;42.724;23.250;2023-04-28T08:52:55;95070.63;;;19.26;34.30
15050;BME280;7622;42.724;23.250;2023-04-28T08:55:23;95057.44;;;19.05;34.85
15050;BME280;7622;42.724;23.250;2023-04-28T08:57:52;95060.00;;;18.55;35.07
15050;BME280;7622;42.724;23.250;2023-04-28T09:00:20;95064.19;;;18.34;35.64
15050;BME280;7622;42.724;23.250;2023-04-28T09:02:47;95058.72;;;17.46;35.78
15050;BME280;7622;42.724;23.250;2023-04-28T09:05:14;95051.63;;;17.92;36.06
15050;BME280;7622;42.724;23.250;2023-04-28T09:07:44;95063.63;;;17.72;36.46
15050;BME280;7622;42.724;23.250;2023-04-28T09:10:16;95061.13;;;18.45;35.02
15050;BME280;7622;42.724;23.250;2023-04-28T09:12:44;95049.66;;;18.82;34.16
15050;BME280;7622;42.724;23.250;2023-04-28T09:15:24;95046.84;;;18.84;34.35
15050;BME280;7622;42.724;23.250;2023-04-28T09:17:52;95041.47;;;18.92;34.32
15050;BME280;7622;42.724;23.250;2023-04-28T09:20:19;95039.16;;;18.53;34.93
15050;BME280;7622;42.724;23.250;2023-04-28T09:22:47;95042.53;;;19.12;34.40
15050;BME280;7622;42.724;23.250;2023-04-28T09:25:16;95036.13;;;19.21;34.30
15050;BME280;7622;42.724;23.250;2023-04-28T09:27:43;95034.13;;;19.23;34.43
15050;BME280;7622;42.724;23.250;2023-04-28T09:30:11;95038.66;;;19.72;33.76
15050;BME280;7622;42.724;23.250;2023-04-28T09:32:38;95024.41;;;19.66;33.16
15050;BME280;7622;42.724;23.250;2023-04-28T09:35:05;95030.06;;;19.21;33.88
15050;BME280;7622;42.724;23.250;2023-04-28T09:37:33;95025.28;;;19.74;33.55
15050;BME280;7622;42.724;23.250;2023-04-28T09:40:06;95000.97;;;20.34;32.95
15050;BME280;7622;42.724;23.250;2023-04-28T09:42:36;95003.66;;;19.85;33.28
15050;BME280;7622;42.724;23.250;2023-04-28T09:45:04;95009.25;;;19.96;33.02
15050;BME280;7622;42.724;23.250;2023-04-28T09:47:32;95015.97;;;19.78;33.58
15050;BME280;7622;42.724;23.250;2023-04-28T09:50:02;95015.75;;;20.00;33.36
15050;BME280;7622;42.724;23.250;2023-04-28T09:52:32;95010.41;;;19.45;33.89
15050;BME280;7622;42.724;23.250;2023-04-28T09:55:00;95012.75;;;19.76;33.28
15050;BME280;7622;42.724;23.250;2023-04-28T09:57:29;95002.56;;;20.00;32.80
15050;BME280;7622;42.724;23.250;2023-04-28T09:59:59;95000.06;;;19.64;32.41
15050;BME280;7622;42.724;23.250;2023-04-28T10:02:26;94994.25;;;19.48;32.73
15050;BME280;7622;42.724;23.250;2023-04-28T10:04:53;94991.03;;;19.10;33.14
15050;BME280;7622;42.724;23.250;2023-04-28T10:07:22;94992.97;;;19.65;32.54
15050;BME280;7622;42.724;23.250;2023-04-28T10:09:51;94993.28;;;19.77;32.60
15050;BME280;7622;42.724;23.250;2023-04-28T10:12:20;94985.13;;;20.34;32.52
15050;BME280;7622;42.724;23.250;2023-04-28T10:14:48;94987.06;;;20.47;32.08
15050;BME280;7622;42.724;23.250;2023-04-28T10:17:20;94980.34;;;20.44;32.15
15050;BME280;7622;42.724;23.250;2023-04-28T10:19:51;94986.31;;;20.25;32.51
15050;BME280;7622;42.724;23.250;2023-04-28T10:22:32;94984.88;;;20.63;31.91
15050;BME280;7622;42.724;23.250;2023-04-28T10:25:23;94978.47;;;20.86;31.91
15050;BME280;7622;42.724;23.250;2023-04-28T10:27:50;94981.28;;;20.77;32.33
15050;BME280;7622;42.724;23.250;2023-04-28T10:30:19;94978.25;;;20.33;32.58
15050;BME280;7622;42.724;23.250;2023-04-28T10:33:22;94970.19;;;20.48;32.73
15050;BME280;7622;42.724;23.250;2023-04-28T10:35:50;94976.63;;;20.79;32.28
15050;BME280;7622;42.724;23.250;2023-04-28T10:38:18;94968.75;;;20.99;32.33
15050;BME280;7622;42.724;23.250;2023-04-28T10:40:46;94967.72;;;20.33;32.13
15050;BME280;7622;42.724;23.250;2023-04-28T10:43:32;94965.13;;;20.12;32.49
15050;BME280;7622;42.724;23.250;2023-04-28T10:46:07;94956.03;;;19.86;31.95
15050;BME280;7622;42.724;23.250;2023-04-28T10:48:54;94963.09;;;20.14;31.73
15050;BME280;7622;42.724;23.250;2023-04-28T10:51:28;94957.59;;;20.50;31.61
15050;BME280;7622;42.724;23.250;2023-04-28T10:54:23;94943.38;;;20.10;31.40
15050;BME280;7622;42.724;23.250;2023-04-28T10:57:17;94939.69;;;19.97;31.91
15050;BME280;7622;42.724;23.250;2023-04-28T10:59:45;94932.25;;;19.52;32.50
15050;BME280;7622;42.724;23.250;2023-04-28T11:02:39;94947.84;;;19.47;32.52
15050;BME280;7622;42.724;23.250;2023-04-28T11:05:12;94938.41;;;19.16;32.62
15050;BME280;7622;42.724;23.250;2023-04-28T11:07:39;94932.84;;;19.26;31.94
15050;BME280;7622;42.724;23.250;2023-04-28T11:10:06;94925.31;;;19.72;32.45
15050;BME280;7622;42.724;23.250;2023-04-28T11:12:33;94925.56;;;19.77;32.30
15050;BME280;7622;42.724;23.250;2023-04-28T11:15:10;94931.56;;;20.40;31.79
15050;BME280;7622;42.724;23.250;2023-04-28T11:17:39;94924.47;;;19.22;32.59
15050;BME280;7622;42.724;23.250;2023-04-28T11:20:12;94910.81;;;19.55;32.40
15050;BME280;7622;42.724;23.250;2023-04-28T11:22:40;94917.94;;;19.40;33.32
15050;BME280;7622;42.724;23.250;2023-04-28T11:25:08;94907.16;;;19.07;33.82
15050;BME280;7622;42.724;23.250;2023-04-28T11:27:35;94903.28;;;19.31;33.86
15050;BME280;7622;42.724;23.250;2023-04-28T11:30:02;94903.19;;;18.75;34.36
15050;BME280;7622;42.724;23.250;2023-04-28T11:32:32;94897.31;;;18.94;34.29
15050;BME280;7622;42.724;23.250;2023-04-28T11:34:59;94890.00;;;19.17;35.07
15050;BME280;7622;42.724;23.250;2023-04-28T11:37:27;94892.63;;;19.17;34.44
15050;BME280;7622;42.724;23.250;2023-04-28T11:39:54;94886.91;;;19.35;33.74
15050;BME280;7622;42.724;23.250;2023-04-28T11:42:21;94888.00;;;19.19;33.92
15050;BME280;7622;42.724;23.250;2023-04-28T11:44:51;94888.44;;;19.02;33.70
15050;BME280;7622;42.724;23.250;2023-04-28T11:47:28;94893.88;;;18.94;33.32
15050;BME280;7622;42.724;23.250;2023-04-28T11:49:55;94888.72;;;18.85;34.42
15050;BME280;7622;42.724;23.250;2023-04-28T11:52:22;94883.88;;;18.89;34.05
15050;BME280;7622;42.724;23.250;2023-04-28T11:54:55;94887.66;;;19.01;34.03
15050;BME280;7622;42.724;23.250;2023-04-28T11:57:24;94877.69;;;18.75;33.88
15050;BME280;7622;42.724;23.250;2023-04-28T11:59:52;94879.44;;;18.54;34.55
15050;BME280;7622;42.724;23.250;2023-04-28T12:02:24;94884.16;;;18.73;34.72
15050;BME280;7622;42.724;23.250;2023-04-28T12:04:53;94883.03;;;18.10;34.88
15050;BME280;7622;42.724;23.250;2023-04-28T12:07:20;94882.16;;;18.39;34.30
15050;BME280;7622;42.724;23.250;2023-04-28T12:09:56;94876.81;;;18.32;34.47
15050;BME280;7622;42.724;23.250;2023-04-28T12:12:36;94844.59;;;18.09;34.26
15050;BME280;7622;42.724;23.250;2023-04-28T12:15:04;94865.34;;;18.40;34.26
15050;BME280;7622;42.724;23.250;2023-04-28T12:17:33;94854.78;;;17.97;35.11
15050;BME280;7622;42.724;23.250;2023-04-28T12:20:02;94860.09;;;18.04;35.37
15050;BME280;7622;42.724;23.250;2023-04-28T12:22:30;94852.22;;;17.60;36.74
15050;BME280;7622;42.724;23.250;2023-04-28T12:25:04;94852.69;;;17.63;36.12
15050;BME280;7622;42.724;23.250;2023-04-28T12:27:32;94856.41;;;17.84;36.25
15050;BME280;7622;42.724;23.250;2023-04-28T12:30:02;94857.41;;;17.83;35.31
15050;BME280;7622;42.724;23.250;2023-04-28T12:32:36;94852.47;;;18.09;35.26
15050;BME280;7622;42.724;23.250;2023-04-28T12:35:04;94843.31;;;18.41;35.24
15050;BME280;7622;42.724;23.250;2023-04-28T12:37:31;94840.06;;;18.03;35.07
15050;BME280;7622;42.724;23.250;2023-04-28T12:39:58;94840.94;;;18.46;35.32
15050;BME280;7622;42.724;23.250;2023-04-28T12:42:26;94845.16;;;18.62;35.31
15050;BME280;7622;42.724;23.250;2023-04-28T12:44:53;94832.34;;;18.01;35.21
15050;BME280;7622;42.724;23.250;2023-04-28T12:47:21;94831.47;;;17.50;35.88
15050;BME280;7622;42.724;23.250;2023-04-28T12:49:48;94811.19;;;17.88;35.71
15050;BME280;7622;42.724;23.250;2023-04-28T12:52:17;94838.16;;;18.33;35.40
15050;BME280;7622;42.724;23.250;2023-04-28T12:54:44;94826.56;;;18.27;35.41
15050;BME280;7622;42.724;23.250;2023-04-28T12:57:12;94829.03;;;18.29;35.17
15050;BME280;7622;42.724;23.250;2023-04-28T12:59:39;94821.91;;;18.44;35.47
15050;BME280;7622;42.724;23.250;2023-04-28T13:02:06;94814.16;;;18.57;35.00
15050;BME280;7622;42.724;23.250;2023-04-28T13:04:34;94814.38;;;18.41;35.60
15050;BME280;7622;42.724;23.250;2023-04-28T13:07:01;94806.06;;;18.01;35.87
15050;BME280;7622;42.724;23.250;2023-04-28T13:09:28;94802.00;;;17.84;35.89
15050;BME280;7622;42.724;23.250;2023-04-28T13:11:54;94806.56;;;17.90;35.78